Startpagina
METAR-TAF:

METAR-TAF

Vliegvelden :

Dallas / Fort Worth, Texas, Verenigde Staten

Dallas/Fort Worth International Airport

breedte: 32-53-49N, lengte: 097-01-19W, hoogte: 183 m

Actueel weer

Dit bericht is 41 minuten geleden gemaakt, om 08:53 UTC
Weinig wind
Temperatuur 7°C
Vochtigheid 61%
Druk 1022 hPa
Zicht: 16.1 km
Gebroken wolken op 25000 ft

METAR: KDFW 200853Z 00000KT 10SM BKN250 07/00 A3017 RMK AO2 SLP214 T00670000 58011 $

Tijdstip: 03:34 (09:34 UTC)

Verwachting

Dit bericht is 26 minuten geleden gemaakt, om 09:08 UTC
Verwachting geldig van 20 om 09 UTC tot 21 om 12 UTC
Wind 5 kt uit het zuiden
Zicht: 10 km
Gebroken wolken op 30000 ft
Van 20 om 1700 UTC
Wind 13 kt uit het zuiden
Zicht: 10 km
Verspreide wolken op 30000 ft

TAF: KDFW 200908Z 2009/2112 18005KT P6SM BKN300 FM201700 18013KT P6SM SCT300

Waarnemingen en weersverwachtingen van meer dan 4000 vliegvelden (METAR en TAF).

De beschikbare stations zijn de gele en rode punten op de kaart.

Ga met uw muis naar het station om de naam te zien.

Klik dan om waarnemingen en weersverwachtingen te zien.

kaart wijzigen: klik op de groene knoppen met een zwart kruis om in te zoomen, op de groene knop met een streepje om uit te zoomen of op de groene pijlen voor aangrenzende kaarten.


METAR-TAF: